Time;durP1;ratioP1;P1;durP2;ratioP2;P2;SDS_P1;SDS_P2;PMS_P1;PMS_P2;Temp;Humidity;BMP_temperature;BMP_pressure;BME280_temperature;BME280_humidity;BME280_pressure;Samples;Min_cycle;Max_cycle;Signal;HPM_P1;HPM_P2
2021/07/10 00:01:11;;;;;;;168.17;158.57;;;;;;;;;;5058211;28;20482;-69
2021/07/10 00:03:39;;;;;;;162.97;153.70;;;;;;;;;;5050991;28;20958;-69
2021/07/10 00:06:07;;;;;;;165.73;156.40;;;;;;;;;;5050693;28;20470;-69
2021/07/10 00:08:34;;;;;;;160.57;151.90;;;;;;;;;;5051250;28;20447;-69
2021/07/10 00:11:01;;;;;;;164.40;155.87;;;;;;;;;;5049993;28;20494;-68
2021/07/10 00:13:29;;;;;;;165.33;156.93;;;;;;;;;;5050777;28;20452;-69
2021/07/10 00:15:56;;;;;;;162.87;154.77;;;;;;;;;;5050664;28;20828;-69
2021/07/10 00:18:23;;;;;;;155.93;147.93;;;;;;;;;;5050363;28;20459;-70
2021/07/10 00:20:50;;;;;;;152.60;144.90;;;;;;;;;;5056716;28;20474;-69
2021/07/10 00:23:19;;;;;;;153.97;146.37;;;;;;;;;;5050898;28;20447;-69
2021/07/10 00:25:46;;;;;;;150.27;142.87;;;;;;;;;;5053990;28;20452;-68
2021/07/10 00:28:13;;;;;;;152.00;144.80;;;;;;;;;;5058373;28;20970;-68
2021/07/10 00:30:40;;;;;;;144.97;138.17;;;;;;;;;;5054496;28;20499;-69
2021/07/10 00:33:07;;;;;;;144.20;137.30;;;;;;;;;;5054078;28;20448;-69
2021/07/10 00:35:35;;;;;;;142.17;135.67;;;;;;;;;;5054266;28;20837;-69
2021/07/10 00:38:03;;;;;;;143.80;137.00;;;;;;;;;;5053905;28;20466;-70
2021/07/10 00:40:31;;;;;;;136.03;129.73;;;;;;;;;;5053896;28;20464;-69
2021/07/10 00:42:58;;;;;;;141.50;135.13;;;;;;;;;;5053971;28;20817;-69
2021/07/10 00:45:25;;;;;;;140.13;133.93;;;;;;;;;;5053762;28;20448;-68
2021/07/10 00:47:52;;;;;;;135.43;129.53;;;;;;;;;;5053523;28;20452;-70
2021/07/10 00:50:22;;;;;;;133.70;127.70;;;;;;;;;;5053579;28;20483;-70
2021/07/10 00:52:49;;;;;;;130.53;124.50;;;;;;;;;;5053606;28;20454;-69
2021/07/10 00:55:17;;;;;;;128.20;122.70;;;;;;;;;;5054071;28;20448;-69
2021/07/10 00:57:45;;;;;;;125.20;119.57;;;;;;;;;;5053003;28;20451;-69
2021/07/10 01:00:14;;;;;;;129.50;123.70;;;;;;;;;;5056923;28;21019;-68
2021/07/10 01:02:41;;;;;;;124.10;118.73;;;;;;;;;;5061103;28;20455;-69
2021/07/10 01:05:10;;;;;;;121.93;116.10;;;;;;;;;;5056103;28;20458;-68
2021/07/10 01:07:39;;;;;;;117.23;112.13;;;;;;;;;;5053706;28;20810;-69
2021/07/10 01:10:07;;;;;;;119.20;114.10;;;;;;;;;;5053191;28;20495;-69
2021/07/10 01:12:34;;;;;;;112.67;107.80;;;;;;;;;;5062053;28;20459;-69
2021/07/10 01:15:03;;;;;;;113.80;108.87;;;;;;;;;;5053508;28;20474;-68
2021/07/10 01:17:30;;;;;;;108.10;103.50;;;;;;;;;;5050150;28;20819;-69
2021/07/10 01:20:00;;;;;;;109.40;104.70;;;;;;;;;;5054537;28;20482;-67
2021/07/10 01:22:29;;;;;;;104.57;100.07;;;;;;;;;;5033363;28;20448;-69
2021/07/10 01:24:56;;;;;;;108.33;103.63;;;;;;;;;;5033495;28;20456;-68
2021/07/10 01:27:23;;;;;;;109.90;105.30;;;;;;;;;;5054826;28;21008;-67
2021/07/10 01:29:50;;;;;;;109.53;104.63;;;;;;;;;;5052861;28;20491;-69
2021/07/10 01:32:18;;;;;;;110.40;105.60;;;;;;;;;;5052695;28;20455;-68
2021/07/10 01:34:46;;;;;;;110.80;105.80;;;;;;;;;;5053110;28;20452;-68
2021/07/10 01:37:14;;;;;;;107.47;102.60;;;;;;;;;;5067770;28;20446;-68
2021/07/10 01:39:42;;;;;;;109.47;104.60;;;;;;;;;;5072797;28;20462;-69
2021/07/10 01:42:10;;;;;;;103.90;99.20;;;;;;;;;;5057336;28;20449;-68
2021/07/10 01:44:37;;;;;;;98.73;94.33;;;;;;;;;;5052160;28;20947;-68
2021/07/10 01:47:04;;;;;;;100.70;96.33;;;;;;;;;;5066822;28;20787;-69
2021/07/10 01:49:31;;;;;;;95.53;91.23;;;;;;;;;;5065519;28;20482;-69
2021/07/10 01:51:59;;;;;;;92.93;88.53;;;;;;;;;;5063381;28;20447;-69
2021/07/10 01:54:26;;;;;;;87.20;83.17;;;;;;;;;;5052688;28;20454;-68
2021/07/10 01:56:54;;;;;;;82.27;78.43;;;;;;;;;;5055851;28;20539;-68
2021/07/10 01:59:21;;;;;;;82.83;78.93;;;;;;;;;;5052084;28;20444;-69
2021/07/10 02:01:49;;;;;;;79.27;75.67;;;;;;;;;;5052319;28;20452;-68
2021/07/10 02:04:19;;;;;;;81.97;78.20;;;;;;;;;;5052406;28;20448;-69
2021/07/10 02:06:47;;;;;;;79.40;75.80;;;;;;;;;;5060206;28;20458;-69
2021/07/10 02:09:15;;;;;;;80.93;77.03;;;;;;;;;;5072675;28;20797;-69
2021/07/10 02:11:45;;;;;;;77.23;73.37;;;;;;;;;;5053073;28;20853;-69
2021/07/10 02:14:14;;;;;;;73.70;70.30;;;;;;;;;;5052747;28;20452;-69
2021/07/10 02:16:41;;;;;;;74.43;70.93;;;;;;;;;;5051964;28;20505;-69
2021/07/10 02:19:08;;;;;;;74.13;70.67;;;;;;;;;;5051960;28;20818;-68
2021/07/10 02:21:36;;;;;;;79.00;75.20;;;;;;;;;;5052187;28;20472;-70
2021/07/10 02:24:03;;;;;;;78.20;74.50;;;;;;;;;;5052083;28;20444;-69
2021/07/10 02:26:30;;;;;;;73.63;70.20;;;;;;;;;;5055115;28;20455;-70
2021/07/10 02:28:57;;;;;;;69.93;66.60;;;;;;;;;;5071859;28;20447;-69
2021/07/10 02:31:26;;;;;;;70.80;67.20;;;;;;;;;;5067663;28;20479;-68
2021/07/10 02:33:53;;;;;;;70.70;67.27;;;;;;;;;;5051099;28;20823;-69
2021/07/10 02:36:20;;;;;;;68.83;65.53;;;;;;;;;;5054319;28;20452;-69
2021/07/10 02:38:47;;;;;;;73.77;70.20;;;;;;;;;;5071639;28;20450;-69
2021/07/10 02:41:14;;;;;;;78.20;74.50;;;;;;;;;;5056588;28;20467;-69
2021/07/10 02:43:41;;;;;;;74.63;70.83;;;;;;;;;;5055785;28;20443;-69
2021/07/10 02:46:09;;;;;;;72.50;68.90;;;;;;;;;;5071114;28;20463;-68
2021/07/10 02:48:37;;;;;;;69.70;66.20;;;;;;;;;;5050763;28;20448;-69
2021/07/10 02:51:04;;;;;;;68.50;64.70;;;;;;;;;;5051144;28;20837;-68
2021/07/10 02:53:32;;;;;;;70.80;67.33;;;;;;;;;;5052997;28;20462;-68
2021/07/10 02:55:59;;;;;;;66.33;62.83;;;;;;;;;;5051085;28;20452;-69
2021/07/10 02:58:26;;;;;;;68.90;65.30;;;;;;;;;;5051694;28;20448;-67
2021/07/10 03:00:53;;;;;;;71.60;67.80;;;;;;;;;;5051692;28;20553;-68
2021/07/10 03:03:20;;;;;;;67.67;64.27;;;;;;;;;;5051662;28;20471;-68
2021/07/10 03:05:49;;;;;;;66.43;63.03;;;;;;;;;;5051760;28;20486;-67
2021/07/10 03:08:16;;;;;;;66.23;62.83;;;;;;;;;;5050886;28;20459;-68
2021/07/10 03:10:43;;;;;;;68.83;65.33;;;;;;;;;;5062422;28;20505;-69
2021/07/10 03:13:11;;;;;;;64.27;60.93;;;;;;;;;;5051551;28;20443;-68
2021/07/10 03:15:39;;;;;;;59.87;56.77;;;;;;;;;;5063496;28;20455;-68
2021/07/10 03:18:06;;;;;;;62.07;58.97;;;;;;;;;;5071503;28;20848;-66
2021/07/10 03:20:33;;;;;;;65.63;62.27;;;;;;;;;;5059311;28;20467;-68
2021/07/10 03:23:01;;;;;;;67.70;64.30;;;;;;;;;;5070080;28;20457;-67
2021/07/10 03:25:28;;;;;;;63.63;60.43;;;;;;;;;;5061172;28;20452;-67
2021/07/10 03:27:57;;;;;;;62.90;59.60;;;;;;;;;;5051136;28;20444;-68
2021/07/10 03:30:25;;;;;;;61.07;57.87;;;;;;;;;;5058777;28;20509;-68
2021/07/10 03:32:53;;;;;;;55.10;52.10;;;;;;;;;;5066707;28;20448;-68
2021/07/10 03:35:20;;;;;;;56.70;53.80;;;;;;;;;;5051897;28;20979;-68
2021/07/10 03:37:48;;;;;;;54.43;51.50;;;;;;;;;;5050894;28;20458;-68
2021/07/10 03:40:17;;;;;;;55.90;52.90;;;;;;;;;;5053172;28;20471;-68
2021/07/10 03:42:45;;;;;;;55.13;52.13;;;;;;;;;;5050891;28;20529;-68
2021/07/10 03:45:13;;;;;;;53.87;50.97;;;;;;;;;;5051311;28;20459;-68
2021/07/10 03:47:40;;;;;;;54.63;51.83;;;;;;;;;;5050351;28;20461;-69
2021/07/10 03:50:09;;;;;;;55.43;52.63;;;;;;;;;;5051303;28;20485;-68
2021/07/10 03:52:36;;;;;;;56.20;53.17;;;;;;;;;;5031156;28;20449;-69
2021/07/10 03:55:04;;;;;;;55.93;53.03;;;;;;;;;;5033639;28;20459;-69
2021/07/10 03:57:32;;;;;;;52.00;49.10;;;;;;;;;;5051404;28;20478;-68
2021/07/10 03:59:59;;;;;;;50.67;47.97;;;;;;;;;;5054918;28;20463;-69
2021/07/10 04:02:26;;;;;;;52.97;50.13;;;;;;;;;;5054350;28;20448;-69
2021/07/10 04:04:54;;;;;;;51.20;48.50;;;;;;;;;;5054985;28;20494;-70
2021/07/10 04:07:21;;;;;;;53.53;50.63;;;;;;;;;;5055236;28;20939;-68
2021/07/10 04:09:48;;;;;;;56.33;53.53;;;;;;;;;;5057870;28;20482;-69
2021/07/10 04:12:15;;;;;;;53.37;50.37;;;;;;;;;;5086166;22;20498;-72
2021/07/10 04:14:43;;;;;;;51.43;48.73;;;;;;;;;;5070970;28;20473;-72
2021/07/10 04:17:10;;;;;;;52.40;49.70;;;;;;;;;;5075907;28;20454;-71
2021/07/10 04:19:37;;;;;;;54.03;51.27;;;;;;;;;;5065681;28;20440;-71
2021/07/10 04:22:05;;;;;;;52.20;49.20;;;;;;;;;;5053472;28;20450;-71
2021/07/10 04:24:32;;;;;;;51.50;48.80;;;;;;;;;;5040192;28;20452;-71
2021/07/10 04:26:59;;;;;;;53.23;50.33;;;;;;;;;;5036133;28;20444;-72
2021/07/10 04:29:26;;;;;;;50.97;48.27;;;;;;;;;;5047191;28;20968;-71
2021/07/10 04:31:55;;;;;;;48.87;46.27;;;;;;;;;;5054960;28;20489;-73
2021/07/10 04:34:22;;;;;;;51.50;48.80;;;;;;;;;;5055580;28;20810;-72
2021/07/10 04:36:49;;;;;;;50.50;47.70;;;;;;;;;;5055027;28;20462;-72
2021/07/10 04:39:16;;;;;;;50.70;47.80;;;;;;;;;;5055321;28;20956;-72
2021/07/10 04:41:43;;;;;;;47.27;44.77;;;;;;;;;;5055116;28;20444;-72
2021/07/10 04:44:10;;;;;;;47.43;44.67;;;;;;;;;;5053793;28;20472;-73
2021/07/10 04:46:37;;;;;;;45.97;43.43;;;;;;;;;;5054924;28;20968;-72
2021/07/10 04:49:06;;;;;;;47.00;44.30;;;;;;;;;;5055606;28;20454;-73
2021/07/10 04:51:33;;;;;;;48.60;45.70;;;;;;;;;;5054542;28;20853;-72
2021/07/10 04:54:00;;;;;;;48.83;45.93;;;;;;;;;;5054581;28;20552;-72
2021/07/10 04:56:27;;;;;;;50.57;47.67;;;;;;;;;;5035969;28;20460;-72
2021/07/10 04:58:54;;;;;;;49.00;46.07;;;;;;;;;;5043933;28;20451;-71
2021/07/10 05:01:21;;;;;;;47.73;44.83;;;;;;;;;;5055137;28;20814;-71
2021/07/10 05:03:48;;;;;;;49.40;46.60;;;;;;;;;;5036697;28;20477;-71
2021/07/10 05:06:17;;;;;;;46.10;43.40;;;;;;;;;;5035521;28;20965;-71
2021/07/10 05:08:44;;;;;;;48.63;45.73;;;;;;;;;;5052526;28;21190;-72
2021/07/10 05:11:11;;;;;;;47.37;44.67;;;;;;;;;;5050093;28;20481;-71
2021/07/10 05:13:38;;;;;;;49.73;46.83;;;;;;;;;;5050525;28;20484;-71
2021/07/10 05:16:06;;;;;;;47.73;44.70;;;;;;;;;;5054424;28;20451;-69
2021/07/10 05:18:33;;;;;;;44.93;42.23;;;;;;;;;;5054591;28;20503;-72
2021/07/10 05:21:00;;;;;;;45.73;43.23;;;;;;;;;;5035449;28;20440;-71
2021/07/10 05:23:29;;;;;;;47.50;44.80;;;;;;;;;;5044901;28;20475;-72
2021/07/10 05:25:56;;;;;;;44.77;42.27;;;;;;;;;;5037635;28;20456;-72
2021/07/10 05:28:23;;;;;;;42.50;39.90;;;;;;;;;;5055474;28;20452;-72
2021/07/10 05:30:50;;;;;;;42.27;39.77;;;;;;;;;;5053786;28;20479;-71
2021/07/10 05:33:19;;;;;;;44.33;41.83;;;;;;;;;;5053966;28;20475;-71
2021/07/10 05:35:46;;;;;;;45.20;42.17;;;;;;;;;;5054293;28;21004;-72
2021/07/10 05:38:13;;;;;;;43.83;41.37;;;;;;;;;;5053695;28;20462;-72
2021/07/10 05:40:42;;;;;;;41.70;39.30;;;;;;;;;;5053996;28;20444;-72
2021/07/10 05:43:09;;;;;;;42.87;40.47;;;;;;;;;;5054243;28;20470;-71
2021/07/10 05:45:36;;;;;;;44.33;41.60;;;;;;;;;;5055088;28;20466;-69
2021/07/10 05:48:03;;;;;;;40.83;38.47;;;;;;;;;;5054270;28;20824;-68
2021/07/10 05:50:30;;;;;;;40.30;38.00;;;;;;;;;;5057389;28;20483;-71
2021/07/10 05:52:57;;;;;;;38.13;35.93;;;;;;;;;;5048155;28;20476;-71
2021/07/10 05:55:25;;;;;;;35.37;33.27;;;;;;;;;;5051173;28;20458;-71
2021/07/10 05:57:53;;;;;;;37.40;35.10;;;;;;;;;;5057411;28;20448;-71
2021/07/10 06:00:20;;;;;;;37.70;35.50;;;;;;;;;;5056270;28;20458;-71
2021/07/10 06:02:47;;;;;;;35.53;33.47;;;;;;;;;;5054664;28;20480;-71
2021/07/10 06:05:15;;;;;;;35.20;33.00;;;;;;;;;;5056407;28;20462;-71
2021/07/10 06:07:42;;;;;;;35.27;33.17;;;;;;;;;;5054823;28;20450;-71
2021/07/10 06:10:10;;;;;;;46.90;44.43;;;;;;;;;;5046308;28;20462;-71
2021/07/10 06:12:37;;;;;;;35.07;33.07;;;;;;;;;;5056424;28;20488;-71
2021/07/10 06:15:07;;;;;;;35.10;33.10;;;;;;;;;;5056191;28;20447;-71
2021/07/10 06:17:34;;;;;;;34.83;32.73;;;;;;;;;;5056734;28;20452;-71
2021/07/10 06:20:02;;;;;;;34.20;32.17;;;;;;;;;;5056551;28;20452;-71
2021/07/10 06:22:29;;;;;;;33.30;31.40;;;;;;;;;;5054699;28;20468;-71
2021/07/10 06:24:56;;;;;;;33.27;31.37;;;;;;;;;;5055540;28;20447;-71
2021/07/10 06:27:23;;;;;;;33.07;31.07;;;;;;;;;;5056233;28;20462;-71
2021/07/10 06:29:50;;;;;;;32.50;30.60;;;;;;;;;;5055983;28;20458;-71
2021/07/10 06:32:20;;;;;;;33.13;31.23;;;;;;;;;;5054417;28;20483;-72
2021/07/10 06:34:47;;;;;;;32.63;30.73;;;;;;;;;;5056052;28;20463;-71
2021/07/10 06:37:14;;;;;;;31.83;30.07;;;;;;;;;;5055800;28;20466;-71
2021/07/10 06:39:41;;;;;;;32.97;31.17;;;;;;;;;;5056034;28;20450;-72
2021/07/10 06:42:08;;;;;;;31.20;29.50;;;;;;;;;;5045221;28;20971;-72
2021/07/10 06:44:35;;;;;;;32.63;30.67;;;;;;;;;;5061939;28;20492;-71
2021/07/10 06:47:02;;;;;;;31.47;29.77;;;;;;;;;;5055277;28;20955;-71
2021/07/10 06:49:31;;;;;;;32.07;30.17;;;;;;;;;;5054795;28;20443;-70
2021/07/10 06:51:58;;;;;;;33.23;31.40;;;;;;;;;;5053667;28;20849;-72
2021/07/10 06:54:26;;;;;;;33.90;31.80;;;;;;;;;;5052521;28;20447;-72
2021/07/10 06:56:54;;;;;;;33.23;31.17;;;;;;;;;;5051913;28;20459;-72
2021/07/10 06:59:21;;;;;;;33.73;31.57;;;;;;;;;;5050152;28;20861;-71
2021/07/10 07:01:50;;;;;;;32.13;30.23;;;;;;;;;;5048164;28;20444;-72
2021/07/10 07:04:18;;;;;;;34.37;32.20;;;;;;;;;;5053209;28;20451;-72
2021/07/10 07:06:46;;;;;;;31.93;29.97;;;;;;;;;;5038339;28;20437;-72
2021/07/10 07:09:13;;;;;;;33.07;31.27;;;;;;;;;;5052673;28;20819;-72
2021/07/10 07:11:40;;;;;;;32.10;30.40;;;;;;;;;;5050461;28;20496;-72
2021/07/10 07:14:09;;;;;;;33.20;31.20;;;;;;;;;;5040922;28;20853;-70
2021/07/10 07:16:36;;;;;;;34.90;32.40;;;;;;;;;;5046303;28;20480;-70
2021/07/10 07:19:03;;;;;;;31.87;29.87;;;;;;;;;;5040012;28;20448;-72
2021/07/10 07:21:30;;;;;;;35.47;32.27;;;;;;;;;;5052534;28;20444;-72
2021/07/10 07:23:59;;;;;;;38.30;35.30;;;;;;;;;;5052329;28;21352;-68
2021/07/10 07:26:26;;;;;;;35.97;33.47;;;;;;;;;;5051426;28;20462;-67
2021/07/10 07:28:53;;;;;;;36.60;34.10;;;;;;;;;;5051925;28;20458;-67
2021/07/10 07:31:20;;;;;;;36.57;34.27;;;;;;;;;;5051731;28;20857;-70
2021/07/10 07:33:47;;;;;;;35.70;33.40;;;;;;;;;;5055273;28;20463;-70
2021/07/10 07:36:15;;;;;;;34.03;31.77;;;;;;;;;;5046762;28;20459;-70
2021/07/10 07:38:42;;;;;;;32.20;30.20;;;;;;;;;;5052047;28;20448;-70
2021/07/10 07:41:10;;;;;;;31.33;29.43;;;;;;;;;;5057568;28;20450;-70
2021/07/10 07:43:37;;;;;;;31.30;29.43;;;;;;;;;;5057965;28;21126;-70
2021/07/10 07:46:05;;;;;;;36.77;34.57;;;;;;;;;;5057119;28;20447;-70
2021/07/10 07:48:32;;;;;;;35.50;33.40;;;;;;;;;;5057458;28;20452;-71
2021/07/10 07:51:01;;;;;;;35.00;33.00;;;;;;;;;;5056693;28;20460;-70
2021/07/10 07:53:29;;;;;;;33.23;31.33;;;;;;;;;;5057024;28;20522;-70
2021/07/10 07:55:56;;;;;;;34.87;32.90;;;;;;;;;;5056777;28;20950;-71
2021/07/10 07:58:24;;;;;;;34.63;32.17;;;;;;;;;;5057459;28;20452;-71
2021/07/10 08:00:51;;;;;;;32.73;30.83;;;;;;;;;;5056689;28;20447;-70
2021/07/10 08:03:18;;;;;;;33.83;31.90;;;;;;;;;;5057035;28;20480;-70
2021/07/10 08:05:46;;;;;;;35.23;33.13;;;;;;;;;;5057035;28;20448;-71
2021/07/10 08:08:13;;;;;;;34.60;32.60;;;;;;;;;;5057679;28;20456;-70
2021/07/10 08:10:40;;;;;;;32.03;30.30;;;;;;;;;;5057409;28;20547;-73
2021/07/10 08:13:07;;;;;;;31.03;29.33;;;;;;;;;;5056510;28;20487;-70
2021/07/10 08:15:35;;;;;;;32.50;30.70;;;;;;;;;;5056904;28;20638;-71
2021/07/10 08:18:03;;;;;;;31.27;29.47;;;;;;;;;;5056710;28;20458;-71
2021/07/10 08:20:30;;;;;;;33.53;31.47;;;;;;;;;;5055689;28;20458;-71
2021/07/10 08:22:57;;;;;;;33.57;31.77;;;;;;;;;;5055608;28;20463;-71
2021/07/10 08:25:25;;;;;;;32.47;30.70;;;;;;;;;;5056130;28;20451;-71
2021/07/10 08:27:52;;;;;;;34.67;32.87;;;;;;;;;;5055674;28;20477;-71
2021/07/10 08:30:20;;;;;;;32.40;30.60;;;;;;;;;;5056290;28;20448;-71
2021/07/10 08:32:49;;;;;;;31.10;29.40;;;;;;;;;;5054912;28;20510;-71
2021/07/10 08:35:17;;;;;;;32.40;30.70;;;;;;;;;;5055502;28;20459;-71
2021/07/10 08:37:44;;;;;;;31.60;29.90;;;;;;;;;;5056105;28;20447;-71
2021/07/10 08:40:11;;;;;;;31.93;29.93;;;;;;;;;;5055761;28;20448;-71
2021/07/10 08:42:39;;;;;;;31.80;30.10;;;;;;;;;;5056230;28;20470;-71
2021/07/10 08:45:08;;;;;;;28.93;27.43;;;;;;;;;;5054826;28;20452;-71
2021/07/10 08:47:36;;;;;;;29.20;27.60;;;;;;;;;;5055556;28;20458;-71
2021/07/10 08:50:05;;;;;;;31.60;29.80;;;;;;;;;;5051479;28;20906;-71
2021/07/10 08:52:34;;;;;;;30.03;28.33;;;;;;;;;;5055191;28;20490;-71
2021/07/10 08:55:01;;;;;;;31.37;29.67;;;;;;;;;;5055545;28;20443;-71
2021/07/10 08:57:28;;;;;;;31.47;29.87;;;;;;;;;;5054940;28;20455;-71
2021/07/10 08:59:55;;;;;;;30.50;28.90;;;;;;;;;;5053747;28;20452;-71
2021/07/10 09:02:22;;;;;;;31.63;29.93;;;;;;;;;;5054212;28;20472;-71
2021/07/10 09:04:49;;;;;;;29.40;27.70;;;;;;;;;;5054612;28;20455;-71
2021/07/10 09:07:18;;;;;;;33.97;32.23;;;;;;;;;;5055267;28;20451;-71
2021/07/10 09:09:46;;;;;;;32.83;31.13;;;;;;;;;;5056059;28;20889;-71
2021/07/10 09:12:13;;;;;;;29.10;27.50;;;;;;;;;;5054192;28;20865;-71
2021/07/10 09:14:41;;;;;;;28.47;26.97;;;;;;;;;;5055142;28;20448;-71
2021/07/10 09:17:19;;;;;;;29.13;27.53;;;;;;;;;;5055251;28;20497;-71
2021/07/10 09:19:46;;;;;;;27.70;26.30;;;;;;;;;;5055036;28;20446;-71
2021/07/10 09:22:24;;;;;;;29.03;27.43;;;;;;;;;;5054971;28;20464;-71
2021/07/10 09:24:52;;;;;;;27.53;26.13;;;;;;;;;;5054956;28;20444;-71
2021/07/10 09:27:19;;;;;;;28.00;26.60;;;;;;;;;;5054323;28;20471;-71
2021/07/10 09:29:47;;;;;;;27.17;25.67;;;;;;;;;;5055014;28;20456;-71
2021/07/10 09:32:16;;;;;;;27.17;25.67;;;;;;;;;;5054747;28;20559;-71
2021/07/10 09:34:45;;;;;;;27.13;25.63;;;;;;;;;;5054932;28;20482;-71
2021/07/10 09:37:13;;;;;;;26.67;25.17;;;;;;;;;;5054009;28;20455;-71
2021/07/10 09:39:43;;;;;;;26.13;24.73;;;;;;;;;;5054107;28;20462;-71
2021/07/10 09:42:12;;;;;;;26.70;25.10;;;;;;;;;;5033900;28;20548;-71
2021/07/10 09:44:46;;;;;;;25.90;24.60;;;;;;;;;;5035266;28;20445;-71
2021/07/10 09:47:13;;;;;;;26.27;24.87;;;;;;;;;;5035169;28;20459;-71
2021/07/10 09:49:43;;;;;;;25.87;24.47;;;;;;;;;;5035288;28;20479;-71
2021/07/10 09:52:11;;;;;;;25.30;23.90;;;;;;;;;;5033683;28;20480;-71
2021/07/10 09:54:40;;;;;;;25.77;24.37;;;;;;;;;;5037129;28;20473;-71
2021/07/10 09:57:19;;;;;;;25.70;24.40;;;;;;;;;;5054397;28;20448;-71
2021/07/10 09:59:49;;;;;;;24.90;23.50;;;;;;;;;;5054684;28;20448;-71
2021/07/10 10:02:17;;;;;;;24.87;23.47;;;;;;;;;;5051613;28;20491;-71
2021/07/10 10:04:45;;;;;;;25.67;24.27;;;;;;;;;;5053819;28;20447;-71
2021/07/10 10:07:14;;;;;;;26.23;24.77;;;;;;;;;;5054766;28;20454;-71
2021/07/10 10:09:41;;;;;;;24.80;23.50;;;;;;;;;;5054252;28;20447;-72
2021/07/10 10:12:11;;;;;;;26.23;24.83;;;;;;;;;;5052487;28;20487;-71
2021/07/10 10:14:42;;;;;;;26.00;24.60;;;;;;;;;;5084495;22;20495;-66
2021/07/10 10:17:10;;;;;;;26.20;24.70;;;;;;;;;;5069838;28;20447;-66
2021/07/10 10:19:37;;;;;;;25.30;23.90;;;;;;;;;;5071965;28;20443;-66
2021/07/10 10:22:05;;;;;;;24.63;23.33;;;;;;;;;;5071926;28;20439;-66
2021/07/10 10:24:33;;;;;;;25.13;23.73;;;;;;;;;;5071898;28;20844;-66
2021/07/10 10:27:00;;;;;;;24.53;23.23;;;;;;;;;;5072113;28;20447;-66
2021/07/10 10:29:28;;;;;;;28.83;27.33;;;;;;;;;;5072049;28;20442;-66
2021/07/10 10:31:58;;;;;;;27.90;26.30;;;;;;;;;;5072032;28;20485;-66
2021/07/10 10:34:26;;;;;;;27.87;26.37;;;;;;;;;;5070324;28;20486;-66
2021/07/10 10:36:53;;;;;;;28.33;26.73;;;;;;;;;;5072039;28;20820;-68
2021/07/10 10:39:21;;;;;;;27.53;26.03;;;;;;;;;;5072281;28;20457;-66
2021/07/10 10:41:51;;;;;;;27.47;25.90;;;;;;;;;;5071643;28;20450;-66
2021/07/10 10:44:18;;;;;;;27.50;26.00;;;;;;;;;;5071979;28;20462;-67
2021/07/10 10:46:52;;;;;;;26.00;24.70;;;;;;;;;;5071544;28;20458;-66
2021/07/10 10:49:37;;;;;;;27.40;25.80;;;;;;;;;;5072330;28;20442;-67
2021/07/10 10:52:23;;;;;;;26.53;25.07;;;;;;;;;;5069932;28;20534;-66
2021/07/10 10:54:51;;;;;;;24.83;23.53;;;;;;;;;;5071982;28;20965;-66
2021/07/10 10:57:19;;;;;;;25.53;24.23;;;;;;;;;;5071638;28;20443;-66
2021/07/10 10:59:47;;;;;;;26.00;24.60;;;;;;;;;;5071808;28;20455;-67
2021/07/10 11:02:33;;;;;;;23.73;22.33;;;;;;;;;;5071599;28;20462;-66
2021/07/10 11:05:00;;;;;;;25.30;24.00;;;;;;;;;;5071440;28;20478;-66
2021/07/10 11:07:29;;;;;;;24.70;23.50;;;;;;;;;;5071043;28;20482;-66
2021/07/10 11:10:06;;;;;;;25.60;24.30;;;;;;;;;;5054793;28;20467;-66
2021/07/10 11:12:48;;;;;;;26.57;25.17;;;;;;;;;;5051827;28;20487;-66
2021/07/10 11:15:34;;;;;;;25.67;24.27;;;;;;;;;;5048823;28;20456;-66
2021/07/10 11:18:01;;;;;;;25.47;24.17;;;;;;;;;;5051352;28;20543;-65
2021/07/10 11:20:43;;;;;;;25.90;24.50;;;;;;;;;;5064080;28;20457;-66
2021/07/10 11:23:12;;;;;;;25.97;24.63;;;;;;;;;;5071011;28;20837;-67
2021/07/10 11:26:03;;;;;;;25.40;24.10;;;;;;;;;;5066177;28;20454;-66
2021/07/10 11:28:32;;;;;;;24.70;23.50;;;;;;;;;;5065893;28;20526;-66
2021/07/10 11:31:00;;;;;;;25.50;24.10;;;;;;;;;;5071297;28;20840;-66
2021/07/10 11:33:46;;;;;;;24.13;22.83;;;;;;;;;;5071113;28;20490;-66
2021/07/10 11:36:33;;;;;;;23.60;22.30;;;;;;;;;;5071092;28;20950;-67
2021/07/10 11:39:02;;;;;;;24.40;23.10;;;;;;;;;;5071173;28;20821;-67
2021/07/10 11:41:30;;;;;;;23.53;22.43;;;;;;;;;;5071239;28;20447;-66
2021/07/10 11:44:12;;;;;;;23.70;22.30;;;;;;;;;;5055509;28;20477;-66
2021/07/10 11:46:54;;;;;;;23.30;22.10;;;;;;;;;;5050941;28;20459;-67
2021/07/10 11:49:40;;;;;;;21.47;20.37;;;;;;;;;;5070165;28;20451;-66
2021/07/10 11:52:08;;;;;;;22.80;21.50;;;;;;;;;;5070571;28;20453;-67
2021/07/10 11:54:38;;;;;;;23.20;22.00;;;;;;;;;;5071474;28;20849;-66
2021/07/10 11:57:05;;;;;;;23.43;22.33;;;;;;;;;;5070975;28;20443;-66
2021/07/10 11:59:34;;;;;;;21.60;20.47;;;;;;;;;;5071248;28;20466;-66
2021/07/10 12:02:15;;;;;;;26.33;24.93;;;;;;;;;;5070631;28;20599;-66
2021/07/10 12:04:42;;;;;;;25.87;24.43;;;;;;;;;;5070991;28;20470;-65
2021/07/10 12:07:21;;;;;;;22.00;20.90;;;;;;;;;;5058664;28;20470;-66
2021/07/10 12:09:54;;;;;;;20.87;19.87;;;;;;;;;;5071799;28;20451;-67
2021/07/10 12:12:21;;;;;;;22.00;20.90;;;;;;;;;;5071296;28;20451;-67
2021/07/10 12:14:52;;;;;;;21.80;20.70;;;;;;;;;;5070476;28;20474;-66
2021/07/10 12:17:19;;;;;;;21.77;20.57;;;;;;;;;;5072826;28;20461;-66
2021/07/10 12:19:46;;;;;;;22.20;21.00;;;;;;;;;;5075512;28;20480;-67
2021/07/10 12:22:13;;;;;;;20.60;19.60;;;;;;;;;;5076378;28;20450;-66
2021/07/10 12:24:40;;;;;;;21.87;20.77;;;;;;;;;;5076329;28;20471;-66
2021/07/10 12:27:10;;;;;;;21.37;20.23;;;;;;;;;;5075543;28;20469;-66
2021/07/10 12:29:37;;;;;;;20.63;19.63;;;;;;;;;;5074638;28;20832;-66
2021/07/10 12:32:05;;;;;;;21.20;20.10;;;;;;;;;;5072943;28;20454;-67
2021/07/10 12:34:32;;;;;;;21.90;20.80;;;;;;;;;;5073982;28;20576;-66
2021/07/10 12:37:00;;;;;;;21.70;20.70;;;;;;;;;;5074215;28;20967;-66
2021/07/10 12:39:28;;;;;;;21.87;20.87;;;;;;;;;;5075079;28;20457;-66
2021/07/10 12:41:57;;;;;;;22.07;20.97;;;;;;;;;;5074281;28;20479;-66
2021/07/10 12:44:29;;;;;;;21.03;20.03;;;;;;;;;;5074934;28;20467;-66
2021/07/10 12:46:58;;;;;;;20.80;19.80;;;;;;;;;;5068951;28;20451;-67
2021/07/10 12:49:26;;;;;;;20.53;19.53;;;;;;;;;;5055446;28;20458;-66
2021/07/10 12:51:54;;;;;;;21.33;20.23;;;;;;;;;;5071042;28;20453;-67
2021/07/10 12:54:30;;;;;;;21.10;20.10;;;;;;;;;;5062701;28;20862;-69
2021/07/10 12:56:58;;;;;;;21.27;20.27;;;;;;;;;;5075178;28;20447;-67
2021/07/10 12:59:32;;;;;;;20.90;19.90;;;;;;;;;;5075305;28;20820;-67
2021/07/10 13:02:01;;;;;;;20.43;19.43;;;;;;;;;;5065513;28;20452;-68
2021/07/10 13:04:37;;;;;;;20.23;19.23;;;;;;;;;;5064515;28;20480;-67
2021/07/10 13:07:04;;;;;;;21.73;20.63;;;;;;;;;;5075578;28;20477;-67
2021/07/10 13:09:37;;;;;;;21.73;20.63;;;;;;;;;;5073615;28;20439;-67
2021/07/10 13:12:05;;;;;;;20.50;19.50;;;;;;;;;;5070288;28;20467;-67
2021/07/10 13:14:32;;;;;;;20.20;19.10;;;;;;;;;;5072591;28;20483;-67
2021/07/10 13:17:13;;;;;;;20.80;19.70;;;;;;;;;;5068307;28;20469;-67
2021/07/10 13:19:40;;;;;;;20.50;19.50;;;;;;;;;;5071131;28;20451;-67
2021/07/10 13:22:08;;;;;;;20.90;19.90;;;;;;;;;;5067683;28;20451;-66
2021/07/10 13:24:35;;;;;;;20.10;19.20;;;;;;;;;;5072928;28;20843;-67
2021/07/10 13:27:02;;;;;;;20.53;19.53;;;;;;;;;;5073108;28;20549;-67
2021/07/10 13:29:31;;;;;;;20.77;19.63;;;;;;;;;;5073327;28;20489;-68
2021/07/10 13:31:59;;;;;;;19.90;18.90;;;;;;;;;;5072147;28;20486;-67
2021/07/10 13:34:28;;;;;;;20.30;19.30;;;;;;;;;;5070492;28;20486;-67
2021/07/10 13:36:56;;;;;;;20.23;19.20;;;;;;;;;;5063146;28;20459;-67
2021/07/10 13:39:24;;;;;;;20.50;19.50;;;;;;;;;;5068347;28;20461;-67
2021/07/10 13:41:52;;;;;;;21.17;20.07;;;;;;;;;;5064535;28;20550;-67
2021/07/10 13:44:21;;;;;;;20.40;19.50;;;;;;;;;;5073089;28;20524;-64
2021/07/10 13:46:54;;;;;;;20.40;19.40;;;;;;;;;;5072467;28;20447;-66
2021/07/10 13:49:42;;;;;;;20.73;19.70;;;;;;;;;;5067981;28;20462;-65
2021/07/10 13:52:24;;;;;;;20.73;19.73;;;;;;;;;;5071982;28;20882;-66
2021/07/10 13:54:53;;;;;;;19.87;18.87;;;;;;;;;;5069325;28;20483;-66
2021/07/10 13:57:30;;;;;;;20.10;19.10;;;;;;;;;;5072502;28;20453;-66
2021/07/10 13:59:59;;;;;;;20.60;19.43;;;;;;;;;;5071996;28;20457;-65
2021/07/10 14:02:27;;;;;;;20.93;19.93;;;;;;;;;;5071766;28;20453;-66
2021/07/10 14:05:01;;;;;;;21.10;20.00;;;;;;;;;;5072271;28;20494;-66
2021/07/10 14:07:28;;;;;;;21.30;20.23;;;;;;;;;;5070021;28;20453;-66
2021/07/10 14:09:57;;;;;;;20.90;19.90;;;;;;;;;;5072140;28;20450;-66
2021/07/10 14:12:24;;;;;;;20.53;19.53;;;;;;;;;;5065566;28;20448;-66
2021/07/10 14:14:52;;;;;;;20.47;19.47;;;;;;;;;;5052277;28;20495;-66
2021/07/10 14:17:19;;;;;;;20.80;19.70;;;;;;;;;;5062600;28;20462;-67
2021/07/10 14:19:46;;;;;;;20.47;19.47;;;;;;;;;;5051998;28;20452;-66
2021/07/10 14:22:13;;;;;;;21.07;19.97;;;;;;;;;;5069519;28;20820;-67